Dunbar, Wisconsin
Current Conditions -  °F | °C
As of 9:54 AM on Monday 24 Nov 2014 (Local Time) from KIMT Reporting Station
Overcast Overcast  
Wind Chill: 28°   Ceiling: 600
Heat Index: 37°   Visibility: 10mi
Dew Point: 35°   Wind: 15mph
Humidity: 93%   Direction: 330°NNW
Pressure: 29.05"   Gusts: NA
Location:  45.65°N, 88.17°W
Report Text: KIMT 241554Z AUTO 33013KT 10SM OVC006 03/02 A2905 RMK AO2 SLP846 T00280017
Loading
Personal Weather Stations






























Interactive Weather Map New forecast layout! Learn more

10-Day Weather Forecast

Advertisements
Track Severe Weather on mobile